sensor_id;sensor_type;location;lat;lon;timestamp;pressure;altitude;pressure_sealevel;temperature;humidity
50123;BME280;36021;48.670;6.184;2023-06-22T00:01:58;99049.78;;;24.08;100.00
50123;BME280;36021;48.670;6.184;2023-06-22T00:04:24;99045.69;;;24.02;100.00
50123;BME280;36021;48.670;6.184;2023-06-22T00:06:50;99051.13;;;23.88;100.00
50123;BME280;36021;48.670;6.184;2023-06-22T00:09:16;99062.69;;;23.82;100.00
50123;BME280;36021;48.670;6.184;2023-06-22T00:11:41;99052.34;;;23.90;100.00
50123;BME280;36021;48.670;6.184;2023-06-22T00:14:07;99044.31;;;23.89;100.00
50123;BME280;36021;48.670;6.184;2023-06-22T00:16:33;99050.81;;;23.66;100.00
50123;BME280;36021;48.670;6.184;2023-06-22T00:18:59;99047.97;;;23.63;100.00
50123;BME280;36021;48.670;6.184;2023-06-22T00:21:26;99041.03;;;23.30;100.00
50123;BME280;36021;48.670;6.184;2023-06-22T00:23:52;99047.06;;;23.29;100.00
50123;BME280;36021;48.670;6.184;2023-06-22T00:26:18;99044.44;;;23.17;100.00
50123;BME280;36021;48.670;6.184;2023-06-22T00:28:44;99050.63;;;23.26;100.00
50123;BME280;36021;48.670;6.184;2023-06-22T00:31:09;99041.84;;;23.31;100.00
50123;BME280;36021;48.670;6.184;2023-06-22T00:33:35;99051.03;;;23.28;100.00
50123;BME280;36021;48.670;6.184;2023-06-22T00:36:05;99052.44;;;23.15;100.00
50123;BME280;36021;48.670;6.184;2023-06-22T00:38:33;99057.13;;;23.07;100.00
50123;BME280;36021;48.670;6.184;2023-06-22T00:41:01;99053.53;;;23.07;100.00
50123;BME280;36021;48.670;6.184;2023-06-22T00:43:27;99046.22;;;23.02;100.00
50123;BME280;36021;48.670;6.184;2023-06-22T00:45:52;99045.47;;;23.05;100.00
50123;BME280;36021;48.670;6.184;2023-06-22T00:48:23;99050.28;;;23.05;100.00
50123;BME280;36021;48.670;6.184;2023-06-22T00:50:50;99046.91;;;22.96;100.00
50123;BME280;36021;48.670;6.184;2023-06-22T00:53:18;99042.34;;;22.88;100.00
50123;BME280;36021;48.670;6.184;2023-06-22T00:55:45;99038.75;;;22.87;100.00
50123;BME280;36021;48.670;6.184;2023-06-22T00:58:12;99039.66;;;22.95;100.00
50123;BME280;36021;48.670;6.184;2023-06-22T01:00:41;99019.09;;;22.91;100.00
50123;BME280;36021;48.670;6.184;2023-06-22T01:03:07;99026.69;;;22.87;100.00
50123;BME280;36021;48.670;6.184;2023-06-22T01:05:36;99017.75;;;22.81;100.00
50123;BME280;36021;48.670;6.184;2023-06-22T01:11:04;99023.13;;;22.67;100.00
50123;BME280;36021;48.670;6.184;2023-06-22T01:13:50;99013.66;;;22.56;100.00
50123;BME280;36021;48.670;6.184;2023-06-22T01:16:29;99020.66;;;22.65;100.00
50123;BME280;36021;48.670;6.184;2023-06-22T01:21:38;99005.13;;;22.71;100.00
50123;BME280;36021;48.670;6.184;2023-06-22T01:24:16;99001.56;;;22.74;100.00
50123;BME280;36021;48.670;6.184;2023-06-22T01:27:00;98996.13;;;22.85;100.00
50123;BME280;36021;48.670;6.184;2023-06-22T01:29:32;98979.31;;;22.89;100.00
50123;BME280;36021;48.670;6.184;2023-06-22T01:31:59;98978.50;;;22.88;100.00
50123;BME280;36021;48.670;6.184;2023-06-22T01:34:28;98989.31;;;22.86;100.00
50123;BME280;36021;48.670;6.184;2023-06-22T01:36:55;98991.66;;;22.80;100.00
50123;BME280;36021;48.670;6.184;2023-06-22T01:39:22;98995.88;;;22.71;100.00
50123;BME280;36021;48.670;6.184;2023-06-22T01:41:51;98991.09;;;22.71;100.00
50123;BME280;36021;48.670;6.184;2023-06-22T01:44:18;98992.72;;;22.72;100.00
50123;BME280;36021;48.670;6.184;2023-06-22T01:46:45;98988.34;;;22.75;100.00
50123;BME280;36021;48.670;6.184;2023-06-22T01:49:13;98981.13;;;22.77;100.00
50123;BME280;36021;48.670;6.184;2023-06-22T01:51:40;98980.84;;;22.82;100.00
50123;BME280;36021;48.670;6.184;2023-06-22T01:54:06;98979.91;;;22.75;100.00
50123;BME280;36021;48.670;6.184;2023-06-22T01:56:33;98977.28;;;22.63;100.00
50123;BME280;36021;48.670;6.184;2023-06-22T01:59:12;98972.97;;;22.69;100.00
50123;BME280;36021;48.670;6.184;2023-06-22T02:01:44;98969.09;;;22.54;100.00
50123;BME280;36021;48.670;6.184;2023-06-22T02:04:21;98960.03;;;22.42;100.00
50123;BME280;36021;48.670;6.184;2023-06-22T02:06:55;98957.88;;;22.54;100.00
50123;BME280;36021;48.670;6.184;2023-06-22T02:09:23;98953.03;;;22.55;100.00
50123;BME280;36021;48.670;6.184;2023-06-22T02:11:52;98948.34;;;22.62;100.00
50123;BME280;36021;48.670;6.184;2023-06-22T02:14:21;98938.56;;;22.75;100.00
50123;BME280;36021;48.670;6.184;2023-06-22T02:16:47;98940.50;;;22.71;100.00
50123;BME280;36021;48.670;6.184;2023-06-22T02:19:13;98944.66;;;22.81;100.00
50123;BME280;36021;48.670;6.184;2023-06-22T02:21:44;98942.56;;;22.74;100.00
50123;BME280;36021;48.670;6.184;2023-06-22T02:24:10;98946.13;;;22.71;100.00
50123;BME280;36021;48.670;6.184;2023-06-22T02:26:37;98940.50;;;22.71;100.00
50123;BME280;36021;48.670;6.184;2023-06-22T02:29:03;98937.25;;;22.69;100.00
50123;BME280;36021;48.670;6.184;2023-06-22T02:31:29;98945.53;;;22.62;100.00
50123;BME280;36021;48.670;6.184;2023-06-22T02:33:59;98937.88;;;22.59;100.00
50123;BME280;36021;48.670;6.184;2023-06-22T02:36:25;98954.38;;;22.38;100.00
50123;BME280;36021;48.670;6.184;2023-06-22T02:38:55;98933.22;;;22.44;100.00
50123;BME280;36021;48.670;6.184;2023-06-22T02:41:25;98929.72;;;22.51;100.00
50123;BME280;36021;48.670;6.184;2023-06-22T02:43:51;98930.84;;;22.46;100.00
50123;BME280;36021;48.670;6.184;2023-06-22T02:46:18;98937.00;;;22.55;100.00
50123;BME280;36021;48.670;6.184;2023-06-22T02:48:45;98935.41;;;22.54;100.00
50123;BME280;36021;48.670;6.184;2023-06-22T02:51:11;98924.88;;;22.51;100.00
50123;BME280;36021;48.670;6.184;2023-06-22T02:53:37;98921.53;;;22.42;100.00
50123;BME280;36021;48.670;6.184;2023-06-22T02:56:02;98918.28;;;22.40;100.00
50123;BME280;36021;48.670;6.184;2023-06-22T02:58:34;98928.72;;;22.40;100.00
50123;BME280;36021;48.670;6.184;2023-06-22T03:01:09;98932.16;;;22.29;100.00
50123;BME280;36021;48.670;6.184;2023-06-22T03:03:36;98923.72;;;22.29;100.00
50123;BME280;36021;48.670;6.184;2023-06-22T03:06:02;98931.66;;;22.24;100.00
50123;BME280;36021;48.670;6.184;2023-06-22T03:08:28;98927.69;;;22.25;100.00
50123;BME280;36021;48.670;6.184;2023-06-22T03:10:55;98926.91;;;22.28;100.00
50123;BME280;36021;48.670;6.184;2023-06-22T03:13:21;98930.47;;;22.25;100.00
50123;BME280;36021;48.670;6.184;2023-06-22T03:15:47;98932.69;;;22.16;100.00
50123;BME280;36021;48.670;6.184;2023-06-22T03:18:12;98927.41;;;22.11;100.00
50123;BME280;36021;48.670;6.184;2023-06-22T03:20:38;98924.47;;;22.04;100.00
50123;BME280;36021;48.670;6.184;2023-06-22T03:23:04;98931.94;;;21.96;100.00
50123;BME280;36021;48.670;6.184;2023-06-22T03:25:31;98936.13;;;21.87;100.00
50123;BME280;36021;48.670;6.184;2023-06-22T03:28:00;98926.25;;;21.93;100.00
50123;BME280;36021;48.670;6.184;2023-06-22T03:30:26;98919.19;;;21.99;100.00
50123;BME280;36021;48.670;6.184;2023-06-22T03:32:51;98917.47;;;21.94;100.00
50123;BME280;36021;48.670;6.184;2023-06-22T03:35:17;98916.50;;;21.87;100.00
50123;BME280;36021;48.670;6.184;2023-06-22T03:37:43;98912.38;;;21.80;100.00
50123;BME280;36021;48.670;6.184;2023-06-22T03:40:09;98923.53;;;21.77;100.00
50123;BME280;36021;48.670;6.184;2023-06-22T03:42:38;98912.22;;;21.73;100.00
50123;BME280;36021;48.670;6.184;2023-06-22T03:45:06;98902.78;;;21.81;100.00
50123;BME280;36021;48.670;6.184;2023-06-22T03:47:33;98894.78;;;21.83;100.00
50123;BME280;36021;48.670;6.184;2023-06-22T03:49:59;98891.97;;;21.83;100.00
50123;BME280;36021;48.670;6.184;2023-06-22T03:52:25;98890.00;;;21.84;100.00
50123;BME280;36021;48.670;6.184;2023-06-22T03:54:51;98894.66;;;21.76;100.00
50123;BME280;36021;48.670;6.184;2023-06-22T03:57:16;98894.97;;;21.71;100.00
50123;BME280;36021;48.670;6.184;2023-06-22T03:59:43;98887.13;;;21.80;100.00
50123;BME280;36021;48.670;6.184;2023-06-22T04:02:09;98896.78;;;21.83;100.00
50123;BME280;36021;48.670;6.184;2023-06-22T04:04:35;98891.97;;;21.83;100.00
50123;BME280;36021;48.670;6.184;2023-06-22T04:07:00;98885.19;;;21.85;100.00
50123;BME280;36021;48.670;6.184;2023-06-22T04:09:26;98893.91;;;21.79;100.00
50123;BME280;36021;48.670;6.184;2023-06-22T04:11:51;98891.56;;;21.81;100.00
50123;BME280;36021;48.670;6.184;2023-06-22T04:14:17;98895.53;;;21.80;100.00
50123;BME280;36021;48.670;6.184;2023-06-22T04:16:43;98902.63;;;21.94;100.00
50123;BME280;36021;48.670;6.184;2023-06-22T04:19:08;98898.94;;;21.90;100.00
50123;BME280;36021;48.670;6.184;2023-06-22T04:21:39;98901.00;;;21.93;100.00
50123;BME280;36021;48.670;6.184;2023-06-22T04:24:05;98898.78;;;22.02;100.00
50123;BME280;36021;48.670;6.184;2023-06-22T04:26:30;98901.75;;;22.12;100.00
50123;BME280;36021;48.670;6.184;2023-06-22T04:29:03;98895.22;;;22.05;100.00
50123;BME280;36021;48.670;6.184;2023-06-22T04:31:32;98894.59;;;22.15;100.00
50123;BME280;36021;48.670;6.184;2023-06-22T04:34:06;98891.34;;;22.13;100.00
50123;BME280;36021;48.670;6.184;2023-06-22T04:36:40;98884.34;;;22.26;100.00
50123;BME280;36021;48.670;6.184;2023-06-22T04:39:10;98870.84;;;22.35;100.00
50123;BME280;36021;48.670;6.184;2023-06-22T04:41:41;98875.75;;;22.38;100.00
50123;BME280;36021;48.670;6.184;2023-06-22T04:44:14;98875.75;;;22.38;100.00
50123;BME280;36021;48.670;6.184;2023-06-22T04:46:56;98868.69;;;22.51;100.00
50123;BME280;36021;48.670;6.184;2023-06-22T04:49:30;98863.06;;;22.48;100.00
50123;BME280;36021;48.670;6.184;2023-06-22T04:52:00;98862.28;;;22.51;100.00
50123;BME280;36021;48.670;6.184;2023-06-22T04:54:26;98866.66;;;22.48;100.00
50123;BME280;36021;48.670;6.184;2023-06-22T04:56:52;98871.41;;;22.44;100.00
50123;BME280;36021;48.670;6.184;2023-06-22T04:59:27;98864.59;;;22.45;100.00
50123;BME280;36021;48.670;6.184;2023-06-22T05:01:58;98865.81;;;22.44;100.00
50123;BME280;36021;48.670;6.184;2023-06-22T05:04:25;98858.22;;;22.48;100.00
50123;BME280;36021;48.670;6.184;2023-06-22T05:06:51;98855.09;;;22.53;100.00
50123;BME280;36021;48.670;6.184;2023-06-22T05:09:17;98831.81;;;22.53;100.00
50123;BME280;36021;48.670;6.184;2023-06-22T05:11:44;98836.38;;;22.64;100.00
50123;BME280;36021;48.670;6.184;2023-06-22T05:14:09;98834.78;;;22.63;100.00
50123;BME280;36021;48.670;6.184;2023-06-22T05:16:36;98834.38;;;22.65;100.00
50123;BME280;36021;48.670;6.184;2023-06-22T05:19:02;98830.59;;;22.76;100.00
50123;BME280;36021;48.670;6.184;2023-06-22T05:21:29;98823.38;;;22.79;100.00
50123;BME280;36021;48.670;6.184;2023-06-22T05:23:57;98817.09;;;22.89;100.00
50123;BME280;36021;48.670;6.184;2023-06-22T05:26:28;98827.28;;;23.01;100.00
50123;BME280;36021;48.670;6.184;2023-06-22T05:28:54;98841.34;;;23.01;100.00
50123;BME280;36021;48.670;6.184;2023-06-22T05:31:21;98831.06;;;23.12;100.00
50123;BME280;36021;48.670;6.184;2023-06-22T05:33:47;98821.34;;;23.06;100.00
50123;BME280;36021;48.670;6.184;2023-06-22T05:36:14;98819.81;;;23.12;100.00
50123;BME280;36021;48.670;6.184;2023-06-22T05:38:40;98824.66;;;23.15;100.00
50123;BME280;36021;48.670;6.184;2023-06-22T05:41:08;98827.06;;;23.13;100.00
50123;BME280;36021;48.670;6.184;2023-06-22T05:43:34;98819.53;;;23.24;100.00
50123;BME280;36021;48.670;6.184;2023-06-22T05:46:01;98808.38;;;23.31;100.00
50123;BME280;36021;48.670;6.184;2023-06-22T05:48:28;98809.72;;;23.41;100.00
50123;BME280;36021;48.670;6.184;2023-06-22T05:50:54;98812.53;;;23.41;100.00
50123;BME280;36021;48.670;6.184;2023-06-22T05:53:21;98812.66;;;23.51;100.00
50123;BME280;36021;48.670;6.184;2023-06-22T05:55:47;98810.78;;;23.62;100.00
50123;BME280;36021;48.670;6.184;2023-06-22T05:58:14;98821.28;;;23.69;100.00
50123;BME280;36021;48.670;6.184;2023-06-22T06:00:42;98814.56;;;23.80;100.00
50123;BME280;36021;48.670;6.184;2023-06-22T06:03:10;98804.91;;;23.81;100.00
50123;BME280;36021;48.670;6.184;2023-06-22T06:05:36;98810.47;;;23.74;100.00
50123;BME280;36021;48.670;6.184;2023-06-22T06:08:05;98800.47;;;23.80;100.00
50123;BME280;36021;48.670;6.184;2023-06-22T06:10:32;98793.19;;;23.76;100.00
50123;BME280;36021;48.670;6.184;2023-06-22T06:12:58;98806.84;;;23.74;100.00
50123;BME280;36021;48.670;6.184;2023-06-22T06:15:24;98800.47;;;23.80;100.00
50123;BME280;36021;48.670;6.184;2023-06-22T06:17:52;98797.66;;;23.80;100.00
50123;BME280;36021;48.670;6.184;2023-06-22T06:20:20;98813.88;;;23.94;100.00
50123;BME280;36021;48.670;6.184;2023-06-22T06:22:46;98814.38;;;24.07;100.00
50123;BME280;36021;48.670;6.184;2023-06-22T06:25:12;98807.28;;;24.20;100.00
50123;BME280;36021;48.670;6.184;2023-06-22T06:27:45;98793.63;;;24.25;100.00
50123;BME280;36021;48.670;6.184;2023-06-22T06:30:12;98781.53;;;24.18;100.00
50123;BME280;36021;48.670;6.184;2023-06-22T06:32:38;98789.19;;;24.21;100.00
50123;BME280;36021;48.670;6.184;2023-06-22T06:35:12;98794.38;;;24.19;100.00
50123;BME280;36021;48.670;6.184;2023-06-22T06:37:40;98791.97;;;24.17;100.00
50123;BME280;36021;48.670;6.184;2023-06-22T06:40:10;98779.56;;;24.29;100.00
50123;BME280;36021;48.670;6.184;2023-06-22T06:42:42;98791.28;;;24.31;100.00
50123;BME280;36021;48.670;6.184;2023-06-22T06:45:19;98800.56;;;24.38;100.00
50123;BME280;36021;48.670;6.184;2023-06-22T06:47:46;98784.53;;;24.46;100.00
50123;BME280;36021;48.670;6.184;2023-06-22T06:50:12;98788.22;;;24.61;100.00
50123;BME280;36021;48.670;6.184;2023-06-22T06:52:38;98788.22;;;24.57;100.00
50123;BME280;36021;48.670;6.184;2023-06-22T06:55:04;98797.88;;;24.56;100.00
50123;BME280;36021;48.670;6.184;2023-06-22T06:57:33;98796.63;;;24.50;100.00
50123;BME280;36021;48.670;6.184;2023-06-22T06:59:59;98791.03;;;24.57;100.00
50123;BME280;36021;48.670;6.184;2023-06-22T07:02:25;98783.38;;;24.58;100.00
50123;BME280;36021;48.670;6.184;2023-06-22T07:04:53;98805.88;;;24.47;100.00
50123;BME280;36021;48.670;6.184;2023-06-22T07:07:21;98804.13;;;24.32;100.00
50123;BME280;36021;48.670;6.184;2023-06-22T07:09:46;98805.28;;;24.20;100.00
50123;BME280;36021;48.670;6.184;2023-06-22T07:12:12;98772.53;;;24.09;100.00
50123;BME280;36021;48.670;6.184;2023-06-22T07:14:38;98773.41;;;24.13;100.00
50123;BME280;36021;48.670;6.184;2023-06-22T07:17:03;98778.19;;;24.09;100.00
50123;BME280;36021;48.670;6.184;2023-06-22T07:19:29;98766.09;;;24.05;100.00
50123;BME280;36021;48.670;6.184;2023-06-22T07:21:55;98772.16;;;24.10;100.00
50123;BME280;36021;48.670;6.184;2023-06-22T07:24:22;98773.41;;;24.13;100.00
50123;BME280;36021;48.670;6.184;2023-06-22T07:26:48;98742.84;;;24.15;100.00
50123;BME280;36021;48.670;6.184;2023-06-22T07:29:16;98751.69;;;24.13;100.00
50123;BME280;36021;48.670;6.184;2023-06-22T07:31:42;98763.00;;;24.17;100.00
50123;BME280;36021;48.670;6.184;2023-06-22T07:34:08;98744.56;;;24.26;100.00
50123;BME280;36021;48.670;6.184;2023-06-22T07:36:33;98748.25;;;24.41;100.00
50123;BME280;36021;48.670;6.184;2023-06-22T07:39:02;98757.09;;;24.36;100.00
50123;BME280;36021;48.670;6.184;2023-06-22T07:41:29;98741.75;;;24.30;100.00
50123;BME280;36021;48.670;6.184;2023-06-22T07:43:56;98745.41;;;24.34;100.00
50123;BME280;36021;48.670;6.184;2023-06-22T07:46:22;98754.66;;;24.38;100.00
50123;BME280;36021;48.670;6.184;2023-06-22T07:48:50;98764.81;;;24.46;100.00
50123;BME280;36021;48.670;6.184;2023-06-22T07:51:16;98757.66;;;24.63;100.00
50123;BME280;36021;48.670;6.184;2023-06-22T07:53:43;98760.88;;;24.65;100.00
50123;BME280;36021;48.670;6.184;2023-06-22T07:56:12;98759.56;;;24.48;100.00
50123;BME280;36021;48.670;6.184;2023-06-22T07:58:38;98762.06;;;24.60;100.00
50123;BME280;36021;48.670;6.184;2023-06-22T08:01:04;98758.50;;;24.70;100.00
50123;BME280;36021;48.670;6.184;2023-06-22T08:03:32;98766.69;;;24.90;100.00
50123;BME280;36021;48.670;6.184;2023-06-22T08:05:58;98759.47;;;25.03;100.00
50123;BME280;36021;48.670;6.184;2023-06-22T08:08:23;98761.13;;;25.21;100.00
50123;BME280;36021;48.670;6.184;2023-06-22T08:10:49;98748.25;;;25.31;100.00
50123;BME280;36021;48.670;6.184;2023-06-22T08:13:15;98749.56;;;25.58;100.00
50123;BME280;36021;48.670;6.184;2023-06-22T08:15:41;98739.50;;;25.78;100.00
50123;BME280;36021;48.670;6.184;2023-06-22T08:18:06;98734.63;;;25.89;100.00
50123;BME280;36021;48.670;6.184;2023-06-22T08:20:32;98740.28;;;26.04;100.00
50123;BME280;36021;48.670;6.184;2023-06-22T08:22:57;98729.81;;;26.04;100.00
50123;BME280;36021;48.670;6.184;2023-06-22T08:25:26;98731.41;;;25.80;100.00
50123;BME280;36021;48.670;6.184;2023-06-22T08:27:51;98729.41;;;25.77;100.00
50123;BME280;36021;48.670;6.184;2023-06-22T08:30:17;98724.97;;;25.94;100.00
50123;BME280;36021;48.670;6.184;2023-06-22T08:32:44;98724.13;;;26.25;100.00
50123;BME280;36021;48.670;6.184;2023-06-22T08:35:10;98718.09;;;26.27;100.00
50123;BME280;36021;48.670;6.184;2023-06-22T08:37:36;98725.75;;;25.98;100.00
50123;BME280;36021;48.670;6.184;2023-06-22T08:40:09;98730.22;;;25.71;100.00
50123;BME280;36021;48.670;6.184;2023-06-22T08:42:40;98730.59;;;26.33;100.00
50123;BME280;36021;48.670;6.184;2023-06-22T08:45:07;98721.63;;;26.59;100.00
50123;BME280;36021;48.670;6.184;2023-06-22T08:47:32;98725.63;;;26.76;100.00
50123;BME280;36021;48.670;6.184;2023-06-22T08:49:58;98740.09;;;27.03;100.00
50123;BME280;36021;48.670;6.184;2023-06-22T08:52:24;98742.50;;;27.01;100.00
50123;BME280;36021;48.670;6.184;2023-06-22T08:54:50;98746.63;;;26.75;100.00
50123;BME280;36021;48.670;6.184;2023-06-22T08:57:16;98753.09;;;26.68;100.00
50123;BME280;36021;48.670;6.184;2023-06-22T08:59:42;98738.50;;;26.95;100.00
50123;BME280;36021;48.670;6.184;2023-06-22T09:02:09;98734.44;;;26.99;100.00
50123;BME280;36021;48.670;6.184;2023-06-22T09:04:35;98728.97;;;27.33;100.00
50123;BME280;36021;48.670;6.184;2023-06-22T09:07:05;98721.25;;;27.44;100.00
50123;BME280;36021;48.670;6.184;2023-06-22T09:09:30;98721.03;;;27.72;100.00
50123;BME280;36021;48.670;6.184;2023-06-22T09:11:56;98711.72;;;27.75;100.00
50123;BME280;36021;48.670;6.184;2023-06-22T09:14:21;98711.97;;;27.91;100.00
50123;BME280;36021;48.670;6.184;2023-06-22T09:16:47;98708.84;;;27.79;100.00
50123;BME280;36021;48.670;6.184;2023-06-22T09:19:13;98707.97;;;27.89;100.00
50123;BME280;36021;48.670;6.184;2023-06-22T09:21:39;98694.28;;;27.80;100.00
50123;BME280;36021;48.670;6.184;2023-06-22T09:24:05;98701.34;;;28.06;100.00
50123;BME280;36021;48.670;6.184;2023-06-22T09:26:31;98703.19;;;28.27;100.00
50123;BME280;36021;48.670;6.184;2023-06-22T09:28:56;98690.59;;;28.28;100.00
50123;BME280;36021;48.670;6.184;2023-06-22T09:31:23;98699.50;;;28.30;100.00
50123;BME280;36021;48.670;6.184;2023-06-22T09:33:52;98695.59;;;28.17;100.00
50123;BME280;36021;48.670;6.184;2023-06-22T09:36:20;98690.91;;;27.96;100.00
50123;BME280;36021;48.670;6.184;2023-06-22T09:38:47;98687.72;;;27.90;100.00
50123;BME280;36021;48.670;6.184;2023-06-22T09:41:15;98690.56;;;27.35;100.00
50123;BME280;36021;48.670;6.184;2023-06-22T09:43:41;98677.38;;;27.70;100.00
50123;BME280;36021;48.670;6.184;2023-06-22T09:46:10;98684.22;;;27.72;100.00
50123;BME280;36021;48.670;6.184;2023-06-22T09:48:36;98674.06;;;27.75;100.00
50123;BME280;36021;48.670;6.184;2023-06-22T09:51:04;98658.09;;;27.54;100.00
50123;BME280;36021;48.670;6.184;2023-06-22T09:53:29;98659.78;;;27.41;100.00
50123;BME280;36021;48.670;6.184;2023-06-22T09:55:55;98651.91;;;27.66;100.00
50123;BME280;36021;48.670;6.184;2023-06-22T10:02:33;98648.56;;;27.78;100.00
50123;BME280;36021;48.670;6.184;2023-06-22T10:13:07;98635.50;;;28.29;100.00
50123;BME280;36021;48.670;6.184;2023-06-22T10:15:34;98647.06;;;28.45;100.00
50123;BME280;36021;48.670;6.184;2023-06-22T10:17:59;98637.91;;;28.64;100.00
50123;BME280;36021;48.670;6.184;2023-06-22T10:20:25;98636.22;;;29.01;100.00
50123;BME280;36021;48.670;6.184;2023-06-22T10:22:51;98639.38;;;29.06;100.00
50123;BME280;36021;48.670;6.184;2023-06-22T10:25:17;98651.28;;;29.24;100.00
50123;BME280;36021;48.670;6.184;2023-06-22T10:27:43;98646.19;;;29.39;100.00
50123;BME280;36021;48.670;6.184;2023-06-22T11:29:12;98642.19;;;30.10;100.00
50123;BME280;36021;48.670;6.184;2023-06-22T11:35:40;98648.75;;;30.26;100.00
50123;BME280;36021;48.670;6.184;2023-06-22T11:38:06;98639.84;;;30.24;100.00
50123;BME280;36021;48.670;6.184;2023-06-22T11:40:33;98639.16;;;30.40;100.00
50123;BME280;36021;48.670;6.184;2023-06-22T11:42:58;98632.84;;;30.29;100.00
50123;BME280;36021;48.670;6.184;2023-06-22T11:52:30;98632.53;;;30.04;100.00
50123;BME280;36021;48.670;6.184;2023-06-22T11:54:57;98642.63;;;30.28;100.00
50123;BME280;36021;48.670;6.184;2023-06-22T11:57:24;98662.19;;;29.79;100.00
50123;BME280;36021;48.670;6.184;2023-06-22T11:59:50;98664.22;;;29.29;100.00
50123;BME280;36021;48.670;6.184;2023-06-22T12:02:15;98675.22;;;29.23;100.00
50123;BME280;36021;48.670;6.184;2023-06-22T12:04:44;98670.50;;;29.13;100.00
50123;BME280;36021;48.670;6.184;2023-06-22T12:07:10;98669.16;;;28.94;100.00
50123;BME280;36021;48.670;6.184;2023-06-22T12:09:35;98664.91;;;28.79;100.00
50123;BME280;36021;48.670;6.184;2023-06-22T12:12:01;98671.81;;;28.78;100.00
50123;BME280;36021;48.670;6.184;2023-06-22T12:14:27;98675.97;;;29.01;100.00
50123;BME280;36021;48.670;6.184;2023-06-22T12:16:52;98685.41;;;29.21;100.00
50123;BME280;36021;48.670;6.184;2023-06-22T12:19:18;98680.19;;;29.46;100.00
50123;BME280;36021;48.670;6.184;2023-06-22T12:21:44;98715.72;;;29.58;100.00
50123;BME280;36021;48.670;6.184;2023-06-22T12:24:11;98704.13;;;29.72;100.00
50123;BME280;36021;48.670;6.184;2023-06-22T12:26:36;98702.63;;;29.64;100.00
50123;BME280;36021;48.670;6.184;2023-06-22T12:29:02;98719.63;;;29.10;100.00
50123;BME280;36021;48.670;6.184;2023-06-22T12:31:28;98711.53;;;28.78;100.00
50123;BME280;36021;48.670;6.184;2023-06-22T12:33:54;98721.53;;;28.53;100.00
50123;BME280;36021;48.670;6.184;2023-06-22T12:36:20;98746.69;;;28.10;100.00
50123;BME280;36021;48.670;6.184;2023-06-22T12:38:45;98716.81;;;27.94;100.00
50123;BME280;36021;48.670;6.184;2023-06-22T12:41:11;98715.09;;;28.08;100.00
50123;BME280;36021;48.670;6.184;2023-06-22T12:43:36;98722.06;;;27.96;100.00
50123;BME280;36021;48.670;6.184;2023-06-22T12:46:03;98718.41;;;27.95;100.00
50123;BME280;36021;48.670;6.184;2023-06-22T12:48:29;98703.16;;;27.82;100.00
50123;BME280;36021;48.670;6.184;2023-06-22T12:50:56;98710.34;;;27.94;100.00
50123;BME280;36021;48.670;6.184;2023-06-22T12:53:21;98715.34;;;27.76;100.00
50123;BME280;36021;48.670;6.184;2023-06-22T12:55:49;98708.88;;;27.75;100.00
50123;BME280;36021;48.670;6.184;2023-06-22T12:58:17;98736.72;;;27.29;100.00
50123;BME280;36021;48.670;6.184;2023-06-22T13:00:42;98699.47;;;27.34;100.00
50123;BME280;36021;48.670;6.184;2023-06-22T13:03:08;98703.16;;;27.24;100.00
50123;BME280;36021;48.670;6.184;2023-06-22T13:05:34;98700.38;;;27.17;100.00
50123;BME280;36021;48.670;6.184;2023-06-22T13:08:01;98738.53;;;26.87;100.00
50123;BME280;36021;48.670;6.184;2023-06-22T13:10:27;98687.63;;;26.84;100.00
50123;BME280;36021;48.670;6.184;2023-06-22T13:12:53;98649.28;;;26.72;100.00
50123;BME280;36021;48.670;6.184;2023-06-22T13:15:27;98671.25;;;27.20;100.00
50123;BME280;36021;48.670;6.184;2023-06-22T13:17:53;98667.25;;;27.10;100.00
50123;BME280;36021;48.670;6.184;2023-06-22T13:20:19;98654.13;;;27.41;100.00
50123;BME280;36021;48.670;6.184;2023-06-22T13:22:45;98670.81;;;27.80;100.00
50123;BME280;36021;48.670;6.184;2023-06-22T13:25:10;98663.81;;;28.32;100.00
50123;BME280;36021;48.670;6.184;2023-06-22T13:27:39;98671.75;;;28.48;100.00
50123;BME280;36021;48.670;6.184;2023-06-22T13:30:06;98680.97;;;28.56;100.00
50123;BME280;36021;48.670;6.184;2023-06-22T13:32:32;98673.16;;;28.63;100.00
50123;BME280;36021;48.670;6.184;2023-06-22T13:34:58;98664.91;;;28.79;100.00
50123;BME280;36021;48.670;6.184;2023-06-22T13:37:23;98660.38;;;28.85;100.00
50123;BME280;36021;48.670;6.184;2023-06-22T13:39:49;98656.94;;;28.33;100.00
50123;BME280;36021;48.670;6.184;2023-06-22T13:42:14;98656.09;;;28.70;100.00
50123;BME280;36021;48.670;6.184;2023-06-22T13:44:41;98649.91;;;28.79;100.00
50123;BME280;36021;48.670;6.184;2023-06-22T13:47:07;98648.88;;;28.62;100.00
50123;BME280;36021;48.670;6.184;2023-06-22T13:49:33;98665.81;;;28.35;100.00
50123;BME280;36021;48.670;6.184;2023-06-22T13:52:00;98668.00;;;28.21;100.00
50123;BME280;36021;48.670;6.184;2023-06-22T13:54:25;98651.09;;;28.14;100.00
50123;BME280;36021;48.670;6.184;2023-06-22T13:56:51;98651.41;;;28.87;100.00
50123;BME280;36021;48.670;6.184;2023-06-22T13:59:17;98655.31;;;29.27;100.00
50123;BME280;36021;48.670;6.184;2023-06-22T14:01:42;98645.53;;;29.31;100.00
50123;BME280;36021;48.670;6.184;2023-06-22T14:04:09;98638.41;;;29.70;100.00
50123;BME280;36021;48.670;6.184;2023-06-22T14:06:35;98619.66;;;29.72;100.00
50123;BME280;36021;48.670;6.184;2023-06-22T14:09:01;98622.53;;;29.95;100.00
50123;BME280;36021;48.670;6.184;2023-06-22T14:11:26;98631.91;;;29.69;100.00
50123;BME280;36021;48.670;6.184;2023-06-22T14:13:52;98635.63;;;30.13;100.00
50123;BME280;36021;48.670;6.184;2023-06-22T14:16:18;98637.34;;;30.50;100.00
50123;BME280;36021;48.670;6.184;2023-06-22T14:18:45;98653.69;;;30.45;100.00